sensor_id;sensor_type;location;lat;lon;timestamp;P1;durP1;ratioP1;P2;durP2;ratioP2
12871;SDS011;6504;53.766;9.626;2023-08-07T00:00:26;2.47;;;1.87;;
12871;SDS011;6504;53.766;9.626;2023-08-07T00:02:54;2.37;;;1.50;;
12871;SDS011;6504;53.766;9.626;2023-08-07T00:05:22;2.73;;;1.83;;
12871;SDS011;6504;53.766;9.626;2023-08-07T00:07:50;2.80;;;1.70;;
12871;SDS011;6504;53.766;9.626;2023-08-07T00:10:18;2.07;;;1.67;;
12871;SDS011;6504;53.766;9.626;2023-08-07T00:12:46;2.30;;;1.70;;
12871;SDS011;6504;53.766;9.626;2023-08-07T00:15:14;1.67;;;1.30;;
12871;SDS011;6504;53.766;9.626;2023-08-07T00:17:45;2.07;;;1.70;;
12871;SDS011;6504;53.766;9.626;2023-08-07T00:20:13;2.70;;;1.70;;
12871;SDS011;6504;53.766;9.626;2023-08-07T00:22:41;1.63;;;1.40;;
12871;SDS011;6504;53.766;9.626;2023-08-07T00:25:09;1.73;;;1.60;;
12871;SDS011;6504;53.766;9.626;2023-08-07T00:27:37;1.87;;;1.50;;
12871;SDS011;6504;53.766;9.626;2023-08-07T00:30:06;1.90;;;1.70;;
12871;SDS011;6504;53.766;9.626;2023-08-07T00:32:34;2.30;;;1.50;;
12871;SDS011;6504;53.766;9.626;2023-08-07T00:35:04;1.83;;;1.60;;
12871;SDS011;6504;53.766;9.626;2023-08-07T00:37:34;2.90;;;1.90;;
12871;SDS011;6504;53.766;9.626;2023-08-07T00:40:03;2.73;;;1.70;;
12871;SDS011;6504;53.766;9.626;2023-08-07T00:42:33;2.77;;;2.03;;
12871;SDS011;6504;53.766;9.626;2023-08-07T00:45:01;2.57;;;1.90;;
12871;SDS011;6504;53.766;9.626;2023-08-07T00:47:29;3.93;;;1.90;;
12871;SDS011;6504;53.766;9.626;2023-08-07T00:49:57;2.10;;;1.80;;
12871;SDS011;6504;53.766;9.626;2023-08-07T00:52:27;2.73;;;2.00;;
12871;SDS011;6504;53.766;9.626;2023-08-07T00:54:55;3.60;;;2.40;;
12871;SDS011;6504;53.766;9.626;2023-08-07T00:57:23;3.33;;;1.80;;
12871;SDS011;6504;53.766;9.626;2023-08-07T00:59:52;2.37;;;1.87;;
12871;SDS011;6504;53.766;9.626;2023-08-07T01:02:21;3.67;;;1.93;;
12871;SDS011;6504;53.766;9.626;2023-08-07T01:04:49;2.57;;;2.00;;
12871;SDS011;6504;53.766;9.626;2023-08-07T01:07:18;2.90;;;2.07;;
12871;SDS011;6504;53.766;9.626;2023-08-07T01:09:47;3.23;;;2.10;;
12871;SDS011;6504;53.766;9.626;2023-08-07T01:12:16;3.43;;;2.00;;
12871;SDS011;6504;53.766;9.626;2023-08-07T01:14:49;2.67;;;1.90;;
12871;SDS011;6504;53.766;9.626;2023-08-07T01:17:20;3.43;;;1.70;;
12871;SDS011;6504;53.766;9.626;2023-08-07T01:19:51;3.50;;;1.80;;
12871;SDS011;6504;53.766;9.626;2023-08-07T01:22:21;4.53;;;1.60;;
12871;SDS011;6504;53.766;9.626;2023-08-07T01:24:49;2.67;;;1.80;;
12871;SDS011;6504;53.766;9.626;2023-08-07T01:27:24;1.80;;;1.50;;
12871;SDS011;6504;53.766;9.626;2023-08-07T01:30:09;2.37;;;1.73;;
12871;SDS011;6504;53.766;9.626;2023-08-07T01:32:43;2.77;;;1.83;;
12871;SDS011;6504;53.766;9.626;2023-08-07T01:35:22;3.23;;;1.70;;
12871;SDS011;6504;53.766;9.626;2023-08-07T01:37:54;1.97;;;1.77;;
12871;SDS011;6504;53.766;9.626;2023-08-07T01:40:24;3.10;;;1.77;;
12871;SDS011;6504;53.766;9.626;2023-08-07T01:42:52;2.53;;;1.80;;
12871;SDS011;6504;53.766;9.626;2023-08-07T01:45:24;2.03;;;1.60;;
12871;SDS011;6504;53.766;9.626;2023-08-07T01:47:52;2.07;;;1.80;;
12871;SDS011;6504;53.766;9.626;2023-08-07T01:50:21;3.17;;;1.63;;
12871;SDS011;6504;53.766;9.626;2023-08-07T01:52:50;3.03;;;1.70;;
12871;SDS011;6504;53.766;9.626;2023-08-07T01:55:21;2.30;;;1.87;;
12871;SDS011;6504;53.766;9.626;2023-08-07T01:57:50;2.17;;;1.70;;
12871;SDS011;6504;53.766;9.626;2023-08-07T02:00:18;3.27;;;2.00;;
12871;SDS011;6504;53.766;9.626;2023-08-07T02:02:46;3.30;;;2.00;;
12871;SDS011;6504;53.766;9.626;2023-08-07T02:05:15;1.80;;;1.70;;
12871;SDS011;6504;53.766;9.626;2023-08-07T02:07:43;1.73;;;1.60;;
12871;SDS011;6504;53.766;9.626;2023-08-07T02:10:12;2.20;;;1.67;;
12871;SDS011;6504;53.766;9.626;2023-08-07T02:12:41;2.13;;;1.90;;
12871;SDS011;6504;53.766;9.626;2023-08-07T02:15:10;2.00;;;1.80;;
12871;SDS011;6504;53.766;9.626;2023-08-07T02:17:38;2.67;;;1.60;;
12871;SDS011;6504;53.766;9.626;2023-08-07T02:20:08;1.67;;;1.57;;
12871;SDS011;6504;53.766;9.626;2023-08-07T02:22:37;2.63;;;1.70;;
12871;SDS011;6504;53.766;9.626;2023-08-07T02:25:06;2.57;;;1.57;;
12871;SDS011;6504;53.766;9.626;2023-08-07T02:27:34;4.00;;;1.80;;
12871;SDS011;6504;53.766;9.626;2023-08-07T02:30:04;2.20;;;1.70;;
12871;SDS011;6504;53.766;9.626;2023-08-07T02:32:33;2.97;;;2.00;;
12871;SDS011;6504;53.766;9.626;2023-08-07T02:35:01;2.30;;;1.77;;
12871;SDS011;6504;53.766;9.626;2023-08-07T02:37:29;2.30;;;1.60;;
12871;SDS011;6504;53.766;9.626;2023-08-07T02:39:57;2.40;;;1.77;;
12871;SDS011;6504;53.766;9.626;2023-08-07T02:42:26;3.63;;;1.90;;
12871;SDS011;6504;53.766;9.626;2023-08-07T02:44:54;2.63;;;1.80;;
12871;SDS011;6504;53.766;9.626;2023-08-07T02:47:23;2.37;;;1.70;;
12871;SDS011;6504;53.766;9.626;2023-08-07T02:49:51;3.23;;;1.80;;
12871;SDS011;6504;53.766;9.626;2023-08-07T02:52:19;2.80;;;2.00;;
12871;SDS011;6504;53.766;9.626;2023-08-07T02:54:47;2.97;;;1.87;;
12871;SDS011;6504;53.766;9.626;2023-08-07T02:57:15;4.00;;;1.97;;
12871;SDS011;6504;53.766;9.626;2023-08-07T02:59:43;3.33;;;2.17;;
12871;SDS011;6504;53.766;9.626;2023-08-07T03:02:11;2.60;;;1.90;;
12871;SDS011;6504;53.766;9.626;2023-08-07T03:04:40;2.23;;;2.03;;
12871;SDS011;6504;53.766;9.626;2023-08-07T03:07:08;6.13;;;2.27;;
12871;SDS011;6504;53.766;9.626;2023-08-07T03:09:36;3.20;;;1.90;;
12871;SDS011;6504;53.766;9.626;2023-08-07T03:12:05;6.53;;;1.97;;
12871;SDS011;6504;53.766;9.626;2023-08-07T03:14:34;3.13;;;2.03;;
12871;SDS011;6504;53.766;9.626;2023-08-07T03:17:02;4.17;;;2.30;;
12871;SDS011;6504;53.766;9.626;2023-08-07T03:19:30;4.03;;;2.40;;
12871;SDS011;6504;53.766;9.626;2023-08-07T03:22:00;3.67;;;2.40;;
12871;SDS011;6504;53.766;9.626;2023-08-07T03:24:28;3.47;;;2.37;;
12871;SDS011;6504;53.766;9.626;2023-08-07T03:26:56;5.70;;;2.60;;
12871;SDS011;6504;53.766;9.626;2023-08-07T03:29:24;3.63;;;2.20;;
12871;SDS011;6504;53.766;9.626;2023-08-07T03:31:52;3.70;;;2.20;;
12871;SDS011;6504;53.766;9.626;2023-08-07T03:34:20;4.37;;;2.30;;
12871;SDS011;6504;53.766;9.626;2023-08-07T03:36:48;4.67;;;2.30;;
12871;SDS011;6504;53.766;9.626;2023-08-07T03:39:18;3.83;;;2.33;;
12871;SDS011;6504;53.766;9.626;2023-08-07T03:41:46;4.80;;;2.50;;
12871;SDS011;6504;53.766;9.626;2023-08-07T03:44:14;4.30;;;2.33;;
12871;SDS011;6504;53.766;9.626;2023-08-07T03:46:42;4.40;;;2.60;;
12871;SDS011;6504;53.766;9.626;2023-08-07T03:49:10;5.67;;;2.43;;
12871;SDS011;6504;53.766;9.626;2023-08-07T03:51:38;4.50;;;2.20;;
12871;SDS011;6504;53.766;9.626;2023-08-07T03:54:06;5.27;;;2.60;;
12871;SDS011;6504;53.766;9.626;2023-08-07T03:56:36;3.93;;;2.27;;
12871;SDS011;6504;53.766;9.626;2023-08-07T03:59:04;6.90;;;2.80;;
12871;SDS011;6504;53.766;9.626;2023-08-07T04:01:33;5.13;;;2.20;;
12871;SDS011;6504;53.766;9.626;2023-08-07T04:04:01;5.67;;;2.30;;
12871;SDS011;6504;53.766;9.626;2023-08-07T04:06:30;3.50;;;2.20;;
12871;SDS011;6504;53.766;9.626;2023-08-07T04:08:58;4.63;;;2.80;;
12871;SDS011;6504;53.766;9.626;2023-08-07T04:11:26;6.83;;;2.70;;
12871;SDS011;6504;53.766;9.626;2023-08-07T04:13:55;3.83;;;2.47;;
12871;SDS011;6504;53.766;9.626;2023-08-07T04:16:23;8.83;;;2.83;;
12871;SDS011;6504;53.766;9.626;2023-08-07T04:18:52;5.20;;;2.77;;
12871;SDS011;6504;53.766;9.626;2023-08-07T04:21:20;5.80;;;2.50;;
12871;SDS011;6504;53.766;9.626;2023-08-07T04:23:48;6.33;;;2.60;;
12871;SDS011;6504;53.766;9.626;2023-08-07T04:26:16;5.83;;;2.50;;
12871;SDS011;6504;53.766;9.626;2023-08-07T04:28:44;6.90;;;2.80;;
12871;SDS011;6504;53.766;9.626;2023-08-07T04:31:13;6.60;;;2.50;;
12871;SDS011;6504;53.766;9.626;2023-08-07T04:33:41;4.27;;;2.40;;
12871;SDS011;6504;53.766;9.626;2023-08-07T04:36:09;4.37;;;2.90;;
12871;SDS011;6504;53.766;9.626;2023-08-07T04:38:37;5.47;;;2.53;;
12871;SDS011;6504;53.766;9.626;2023-08-07T04:41:05;6.30;;;2.60;;
12871;SDS011;6504;53.766;9.626;2023-08-07T04:43:33;5.03;;;2.50;;
12871;SDS011;6504;53.766;9.626;2023-08-07T04:46:01;8.30;;;2.57;;
12871;SDS011;6504;53.766;9.626;2023-08-07T04:48:31;6.33;;;2.47;;
12871;SDS011;6504;53.766;9.626;2023-08-07T04:50:59;5.23;;;2.60;;
12871;SDS011;6504;53.766;9.626;2023-08-07T04:53:27;3.20;;;2.10;;
12871;SDS011;6504;53.766;9.626;2023-08-07T04:55:55;7.77;;;2.83;;
12871;SDS011;6504;53.766;9.626;2023-08-07T04:58:23;7.17;;;2.53;;
12871;SDS011;6504;53.766;9.626;2023-08-07T05:00:54;6.50;;;2.80;;
12871;SDS011;6504;53.766;9.626;2023-08-07T05:03:23;5.80;;;2.43;;
12871;SDS011;6504;53.766;9.626;2023-08-07T05:05:55;5.47;;;2.40;;
12871;SDS011;6504;53.766;9.626;2023-08-07T05:08:25;6.30;;;2.67;;
12871;SDS011;6504;53.766;9.626;2023-08-07T05:10:54;5.23;;;2.57;;
12871;SDS011;6504;53.766;9.626;2023-08-07T05:13:22;5.67;;;2.80;;
12871;SDS011;6504;53.766;9.626;2023-08-07T05:15:50;5.50;;;2.50;;
12871;SDS011;6504;53.766;9.626;2023-08-07T05:18:18;5.43;;;2.80;;
12871;SDS011;6504;53.766;9.626;2023-08-07T05:20:46;4.93;;;2.47;;
12871;SDS011;6504;53.766;9.626;2023-08-07T05:23:16;7.93;;;2.90;;
12871;SDS011;6504;53.766;9.626;2023-08-07T05:25:44;6.30;;;3.10;;
12871;SDS011;6504;53.766;9.626;2023-08-07T05:28:15;5.13;;;2.40;;
12871;SDS011;6504;53.766;9.626;2023-08-07T05:30:43;7.60;;;2.80;;
12871;SDS011;6504;53.766;9.626;2023-08-07T05:33:11;7.03;;;2.70;;
12871;SDS011;6504;53.766;9.626;2023-08-07T05:35:41;6.43;;;2.77;;
12871;SDS011;6504;53.766;9.626;2023-08-07T05:38:09;8.30;;;2.87;;
12871;SDS011;6504;53.766;9.626;2023-08-07T05:40:37;9.07;;;3.17;;
12871;SDS011;6504;53.766;9.626;2023-08-07T05:43:07;10.27;;;2.87;;
12871;SDS011;6504;53.766;9.626;2023-08-07T05:45:35;7.87;;;3.07;;
12871;SDS011;6504;53.766;9.626;2023-08-07T05:48:03;10.93;;;3.10;;
12871;SDS011;6504;53.766;9.626;2023-08-07T05:50:31;6.90;;;2.80;;
12871;SDS011;6504;53.766;9.626;2023-08-07T05:52:59;8.10;;;3.13;;
12871;SDS011;6504;53.766;9.626;2023-08-07T05:55:28;10.60;;;3.57;;
12871;SDS011;6504;53.766;9.626;2023-08-07T05:57:57;8.83;;;3.20;;
12871;SDS011;6504;53.766;9.626;2023-08-07T06:00:26;8.53;;;3.40;;
12871;SDS011;6504;53.766;9.626;2023-08-07T06:02:54;10.90;;;3.43;;
12871;SDS011;6504;53.766;9.626;2023-08-07T06:05:23;7.20;;;3.40;;
12871;SDS011;6504;53.766;9.626;2023-08-07T06:07:51;8.57;;;3.23;;
12871;SDS011;6504;53.766;9.626;2023-08-07T06:10:19;11.50;;;3.23;;
12871;SDS011;6504;53.766;9.626;2023-08-07T06:12:47;9.63;;;3.10;;
12871;SDS011;6504;53.766;9.626;2023-08-07T06:15:17;9.57;;;3.50;;
12871;SDS011;6504;53.766;9.626;2023-08-07T06:17:45;9.60;;;3.87;;
12871;SDS011;6504;53.766;9.626;2023-08-07T06:20:13;9.03;;;3.53;;
12871;SDS011;6504;53.766;9.626;2023-08-07T06:22:42;12.57;;;3.83;;
12871;SDS011;6504;53.766;9.626;2023-08-07T06:25:10;10.87;;;3.47;;
12871;SDS011;6504;53.766;9.626;2023-08-07T06:27:38;9.93;;;3.70;;
12871;SDS011;6504;53.766;9.626;2023-08-07T06:30:07;11.57;;;3.70;;
12871;SDS011;6504;53.766;9.626;2023-08-07T06:32:36;9.73;;;3.50;;
12871;SDS011;6504;53.766;9.626;2023-08-07T06:35:05;7.97;;;3.77;;
12871;SDS011;6504;53.766;9.626;2023-08-07T06:37:33;11.07;;;4.03;;
12871;SDS011;6504;53.766;9.626;2023-08-07T06:40:01;11.63;;;3.93;;
12871;SDS011;6504;53.766;9.626;2023-08-07T06:42:30;9.37;;;3.80;;
12871;SDS011;6504;53.766;9.626;2023-08-07T06:44:58;8.97;;;3.63;;
12871;SDS011;6504;53.766;9.626;2023-08-07T06:47:26;15.67;;;4.40;;
12871;SDS011;6504;53.766;9.626;2023-08-07T06:49:55;12.50;;;4.40;;
12871;SDS011;6504;53.766;9.626;2023-08-07T06:52:24;9.70;;;4.03;;
12871;SDS011;6504;53.766;9.626;2023-08-07T06:54:52;10.13;;;4.07;;
12871;SDS011;6504;53.766;9.626;2023-08-07T06:57:20;10.73;;;3.77;;
12871;SDS011;6504;53.766;9.626;2023-08-07T06:59:48;11.50;;;3.60;;
12871;SDS011;6504;53.766;9.626;2023-08-07T07:02:16;9.70;;;3.83;;
12871;SDS011;6504;53.766;9.626;2023-08-07T07:04:44;8.67;;;3.60;;
12871;SDS011;6504;53.766;9.626;2023-08-07T07:07:14;9.10;;;3.70;;
12871;SDS011;6504;53.766;9.626;2023-08-07T07:09:42;9.23;;;3.60;;
12871;SDS011;6504;53.766;9.626;2023-08-07T07:12:10;9.17;;;4.17;;
12871;SDS011;6504;53.766;9.626;2023-08-07T07:14:38;10.37;;;4.57;;
12871;SDS011;6504;53.766;9.626;2023-08-07T07:17:06;9.53;;;3.93;;
12871;SDS011;6504;53.766;9.626;2023-08-07T07:19:34;9.20;;;4.13;;
12871;SDS011;6504;53.766;9.626;2023-08-07T07:22:02;11.77;;;3.90;;
12871;SDS011;6504;53.766;9.626;2023-08-07T07:24:33;12.80;;;4.63;;
12871;SDS011;6504;53.766;9.626;2023-08-07T07:27:01;10.60;;;4.07;;
12871;SDS011;6504;53.766;9.626;2023-08-07T07:29:29;11.07;;;4.33;;
12871;SDS011;6504;53.766;9.626;2023-08-07T07:31:57;12.87;;;4.30;;
12871;SDS011;6504;53.766;9.626;2023-08-07T07:34:26;8.10;;;3.77;;
12871;SDS011;6504;53.766;9.626;2023-08-07T07:36:54;11.57;;;3.97;;
12871;SDS011;6504;53.766;9.626;2023-08-07T07:39:22;10.30;;;3.90;;
12871;SDS011;6504;53.766;9.626;2023-08-07T07:41:52;9.43;;;4.00;;
12871;SDS011;6504;53.766;9.626;2023-08-07T07:44:20;10.10;;;3.77;;
12871;SDS011;6504;53.766;9.626;2023-08-07T07:46:48;9.47;;;3.57;;
12871;SDS011;6504;53.766;9.626;2023-08-07T07:49:17;8.97;;;4.33;;
12871;SDS011;6504;53.766;9.626;2023-08-07T07:51:45;11.70;;;3.90;;
12871;SDS011;6504;53.766;9.626;2023-08-07T07:54:13;8.63;;;3.70;;
12871;SDS011;6504;53.766;9.626;2023-08-07T07:56:42;13.63;;;4.70;;
12871;SDS011;6504;53.766;9.626;2023-08-07T07:59:12;12.37;;;4.20;;
12871;SDS011;6504;53.766;9.626;2023-08-07T08:01:40;11.80;;;3.87;;
12871;SDS011;6504;53.766;9.626;2023-08-07T08:04:08;9.07;;;4.20;;
12871;SDS011;6504;53.766;9.626;2023-08-07T08:06:37;10.23;;;4.10;;
12871;SDS011;6504;53.766;9.626;2023-08-07T08:09:07;8.93;;;4.20;;
12871;SDS011;6504;53.766;9.626;2023-08-07T08:11:36;10.10;;;4.90;;
12871;SDS011;6504;53.766;9.626;2023-08-07T08:14:04;10.50;;;4.17;;
12871;SDS011;6504;53.766;9.626;2023-08-07T08:16:34;11.27;;;4.23;;
12871;SDS011;6504;53.766;9.626;2023-08-07T08:19:02;14.77;;;4.70;;
12871;SDS011;6504;53.766;9.626;2023-08-07T08:21:30;10.63;;;3.70;;
12871;SDS011;6504;53.766;9.626;2023-08-07T08:23:58;13.10;;;4.40;;
12871;SDS011;6504;53.766;9.626;2023-08-07T08:26:27;8.40;;;4.13;;
12871;SDS011;6504;53.766;9.626;2023-08-07T08:28:55;12.30;;;4.10;;
12871;SDS011;6504;53.766;9.626;2023-08-07T08:31:23;10.90;;;3.87;;
12871;SDS011;6504;53.766;9.626;2023-08-07T08:33:53;8.97;;;4.03;;
12871;SDS011;6504;53.766;9.626;2023-08-07T08:36:21;11.13;;;4.00;;
12871;SDS011;6504;53.766;9.626;2023-08-07T08:38:49;14.37;;;4.20;;
12871;SDS011;6504;53.766;9.626;2023-08-07T08:41:18;9.70;;;3.70;;
12871;SDS011;6504;53.766;9.626;2023-08-07T08:43:48;9.33;;;3.90;;
12871;SDS011;6504;53.766;9.626;2023-08-07T08:46:19;11.50;;;4.63;;
12871;SDS011;6504;53.766;9.626;2023-08-07T08:48:50;14.03;;;5.17;;
12871;SDS011;6504;53.766;9.626;2023-08-07T08:51:20;16.10;;;4.63;;
12871;SDS011;6504;53.766;9.626;2023-08-07T08:53:49;10.70;;;3.53;;
12871;SDS011;6504;53.766;9.626;2023-08-07T08:56:18;9.40;;;4.00;;
12871;SDS011;6504;53.766;9.626;2023-08-07T08:58:48;15.47;;;4.63;;
12871;SDS011;6504;53.766;9.626;2023-08-07T09:01:18;10.50;;;4.17;;
12871;SDS011;6504;53.766;9.626;2023-08-07T09:03:50;17.23;;;3.77;;
12871;SDS011;6504;53.766;9.626;2023-08-07T09:06:24;11.07;;;3.70;;
12871;SDS011;6504;53.766;9.626;2023-08-07T09:08:55;11.40;;;4.07;;
12871;SDS011;6504;53.766;9.626;2023-08-07T09:11:25;12.67;;;3.83;;
12871;SDS011;6504;53.766;9.626;2023-08-07T09:13:54;11.10;;;3.73;;
12871;SDS011;6504;53.766;9.626;2023-08-07T09:16:24;10.70;;;3.67;;
12871;SDS011;6504;53.766;9.626;2023-08-07T09:18:55;11.27;;;3.97;;
12871;SDS011;6504;53.766;9.626;2023-08-07T09:21:24;10.27;;;4.03;;
12871;SDS011;6504;53.766;9.626;2023-08-07T09:23:54;10.33;;;3.70;;
12871;SDS011;6504;53.766;9.626;2023-08-07T09:26:22;13.60;;;3.90;;
12871;SDS011;6504;53.766;9.626;2023-08-07T09:28:51;14.03;;;4.23;;
12871;SDS011;6504;53.766;9.626;2023-08-07T09:31:20;9.80;;;4.63;;
12871;SDS011;6504;53.766;9.626;2023-08-07T09:33:48;14.30;;;4.27;;
12871;SDS011;6504;53.766;9.626;2023-08-07T09:36:16;13.83;;;4.20;;
12871;SDS011;6504;53.766;9.626;2023-08-07T09:38:50;10.77;;;4.13;;
12871;SDS011;6504;53.766;9.626;2023-08-07T09:41:18;11.70;;;3.50;;
12871;SDS011;6504;53.766;9.626;2023-08-07T09:43:46;13.37;;;3.80;;
12871;SDS011;6504;53.766;9.626;2023-08-07T09:46:15;12.00;;;3.67;;
12871;SDS011;6504;53.766;9.626;2023-08-07T09:48:46;10.23;;;3.83;;
12871;SDS011;6504;53.766;9.626;2023-08-07T09:51:14;11.13;;;3.17;;
12871;SDS011;6504;53.766;9.626;2023-08-07T09:53:42;12.83;;;3.67;;
12871;SDS011;6504;53.766;9.626;2023-08-07T09:56:12;8.57;;;3.40;;
12871;SDS011;6504;53.766;9.626;2023-08-07T09:58:43;13.13;;;3.73;;
12871;SDS011;6504;53.766;9.626;2023-08-07T10:01:15;10.67;;;3.90;;
12871;SDS011;6504;53.766;9.626;2023-08-07T10:03:44;9.50;;;3.47;;
12871;SDS011;6504;53.766;9.626;2023-08-07T10:06:13;10.73;;;3.57;;
12871;SDS011;6504;53.766;9.626;2023-08-07T10:08:42;8.33;;;3.60;;
12871;SDS011;6504;53.766;9.626;2023-08-07T10:11:13;9.80;;;3.30;;
12871;SDS011;6504;53.766;9.626;2023-08-07T10:13:44;8.73;;;3.63;;
12871;SDS011;6504;53.766;9.626;2023-08-07T10:16:13;8.47;;;3.40;;
12871;SDS011;6504;53.766;9.626;2023-08-07T10:18:42;11.23;;;3.80;;
12871;SDS011;6504;53.766;9.626;2023-08-07T10:21:11;10.27;;;3.80;;
12871;SDS011;6504;53.766;9.626;2023-08-07T10:23:39;7.57;;;3.07;;
12871;SDS011;6504;53.766;9.626;2023-08-07T10:26:09;10.30;;;3.20;;
12871;SDS011;6504;53.766;9.626;2023-08-07T10:28:40;10.00;;;3.23;;
12871;SDS011;6504;53.766;9.626;2023-08-07T10:31:10;9.97;;;3.30;;
12871;SDS011;6504;53.766;9.626;2023-08-07T10:33:41;8.47;;;3.43;;
12871;SDS011;6504;53.766;9.626;2023-08-07T10:36:10;8.80;;;3.33;;
12871;SDS011;6504;53.766;9.626;2023-08-07T10:38:39;11.27;;;3.20;;
12871;SDS011;6504;53.766;9.626;2023-08-07T10:41:08;9.23;;;3.30;;
12871;SDS011;6504;53.766;9.626;2023-08-07T10:43:39;11.57;;;3.83;;
12871;SDS011;6504;53.766;9.626;2023-08-07T10:46:08;10.43;;;3.47;;
12871;SDS011;6504;53.766;9.626;2023-08-07T10:48:38;9.43;;;3.10;;
12871;SDS011;6504;53.766;9.626;2023-08-07T10:51:08;14.93;;;3.30;;
12871;SDS011;6504;53.766;9.626;2023-08-07T10:53:40;11.43;;;3.90;;
12871;SDS011;6504;53.766;9.626;2023-08-07T10:56:10;15.20;;;4.03;;
12871;SDS011;6504;53.766;9.626;2023-08-07T10:58:47;9.00;;;3.17;;
12871;SDS011;6504;53.766;9.626;2023-08-07T11:01:20;9.83;;;3.10;;
12871;SDS011;6504;53.766;9.626;2023-08-07T11:03:50;9.40;;;3.03;;
12871;SDS011;6504;53.766;9.626;2023-08-07T11:06:21;8.40;;;2.27;;
12871;SDS011;6504;53.766;9.626;2023-08-07T11:08:53;9.10;;;2.93;;
12871;SDS011;6504;53.766;9.626;2023-08-07T11:11:21;8.40;;;2.80;;
12871;SDS011;6504;53.766;9.626;2023-08-07T11:13:52;8.23;;;3.10;;
12871;SDS011;6504;53.766;9.626;2023-08-07T11:16:21;10.87;;;3.50;;
12871;SDS011;6504;53.766;9.626;2023-08-07T11:18:50;10.60;;;3.27;;
12871;SDS011;6504;53.766;9.626;2023-08-07T11:21:19;13.30;;;3.50;;
12871;SDS011;6504;53.766;9.626;2023-08-07T11:23:48;12.60;;;3.40;;
12871;SDS011;6504;53.766;9.626;2023-08-07T11:26:17;8.30;;;2.97;;
12871;SDS011;6504;53.766;9.626;2023-08-07T11:28:48;8.23;;;2.77;;
12871;SDS011;6504;53.766;9.626;2023-08-07T11:31:18;9.47;;;2.73;;
12871;SDS011;6504;53.766;9.626;2023-08-07T11:33:46;6.27;;;2.30;;
12871;SDS011;6504;53.766;9.626;2023-08-07T11:36:18;7.67;;;2.70;;
12871;SDS011;6504;53.766;9.626;2023-08-07T11:38:46;8.37;;;2.70;;
12871;SDS011;6504;53.766;9.626;2023-08-07T11:41:15;8.00;;;2.73;;
12871;SDS011;6504;53.766;9.626;2023-08-07T11:43:44;9.07;;;3.37;;
12871;SDS011;6504;53.766;9.626;2023-08-07T11:46:13;12.07;;;3.47;;
12871;SDS011;6504;53.766;9.626;2023-08-07T11:48:44;13.73;;;3.83;;
12871;SDS011;6504;53.766;9.626;2023-08-07T11:51:12;9.33;;;2.50;;
12871;SDS011;6504;53.766;9.626;2023-08-07T11:53:41;7.03;;;2.20;;
12871;SDS011;6504;53.766;9.626;2023-08-07T11:56:09;4.80;;;2.23;;
12871;SDS011;6504;53.766;9.626;2023-08-07T11:58:41;7.60;;;2.60;;
12871;SDS011;6504;53.766;9.626;2023-08-07T12:01:13;6.67;;;2.30;;
12871;SDS011;6504;53.766;9.626;2023-08-07T12:03:52;10.03;;;2.50;;
12871;SDS011;6504;53.766;9.626;2023-08-07T12:06:22;5.97;;;2.63;;
12871;SDS011;6504;53.766;9.626;2023-08-07T12:08:53;7.10;;;2.60;;
12871;SDS011;6504;53.766;9.626;2023-08-07T12:11:24;8.00;;;3.07;;
12871;SDS011;6504;53.766;9.626;2023-08-07T12:13:53;8.77;;;3.10;;
12871;SDS011;6504;53.766;9.626;2023-08-07T12:16:21;7.73;;;2.80;;
12871;SDS011;6504;53.766;9.626;2023-08-07T12:18:50;7.20;;;2.43;;
12871;SDS011;6504;53.766;9.626;2023-08-07T12:21:20;8.27;;;2.73;;
12871;SDS011;6504;53.766;9.626;2023-08-07T12:23:51;7.07;;;2.50;;
12871;SDS011;6504;53.766;9.626;2023-08-07T12:26:22;7.57;;;2.70;;
12871;SDS011;6504;53.766;9.626;2023-08-07T12:28:51;5.10;;;2.20;;
12871;SDS011;6504;53.766;9.626;2023-08-07T12:31:19;6.03;;;2.17;;
12871;SDS011;6504;53.766;9.626;2023-08-07T12:33:48;7.87;;;2.80;;
12871;SDS011;6504;53.766;9.626;2023-08-07T12:36:18;10.50;;;3.03;;
12871;SDS011;6504;53.766;9.626;2023-08-07T12:38:48;9.70;;;2.93;;
12871;SDS011;6504;53.766;9.626;2023-08-07T12:41:16;9.90;;;2.93;;
12871;SDS011;6504;53.766;9.626;2023-08-07T12:43:47;10.43;;;3.20;;
12871;SDS011;6504;53.766;9.626;2023-08-07T12:46:15;8.80;;;2.80;;
12871;SDS011;6504;53.766;9.626;2023-08-07T12:48:46;8.50;;;2.90;;
12871;SDS011;6504;53.766;9.626;2023-08-07T12:51:14;6.47;;;2.73;;
12871;SDS011;6504;53.766;9.626;2023-08-07T12:53:43;5.50;;;2.47;;
12871;SDS011;6504;53.766;9.626;2023-08-07T12:56:13;12.00;;;3.93;;
12871;SDS011;6504;53.766;9.626;2023-08-07T12:58:41;8.93;;;3.17;;
12871;SDS011;6504;53.766;9.626;2023-08-07T13:01:10;8.13;;;3.30;;
12871;SDS011;6504;53.766;9.626;2023-08-07T13:03:38;12.97;;;3.57;;
12871;SDS011;6504;53.766;9.626;2023-08-07T13:06:06;14.57;;;4.17;;
12871;SDS011;6504;53.766;9.626;2023-08-07T13:08:36;11.37;;;4.60;;
12871;SDS011;6504;53.766;9.626;2023-08-07T13:11:06;10.67;;;3.80;;
12871;SDS011;6504;53.766;9.626;2023-08-07T13:13:35;11.70;;;3.60;;
12871;SDS011;6504;53.766;9.626;2023-08-07T13:16:04;11.63;;;4.30;;
12871;SDS011;6504;53.766;9.626;2023-08-07T13:18:33;12.47;;;4.00;;
12871;SDS011;6504;53.766;9.626;2023-08-07T13:21:01;8.37;;;3.50;;
12871;SDS011;6504;53.766;9.626;2023-08-07T13:23:29;11.03;;;3.90;;
12871;SDS011;6504;53.766;9.626;2023-08-07T13:25:57;11.63;;;4.13;;
12871;SDS011;6504;53.766;9.626;2023-08-07T13:28:27;15.10;;;4.17;;
12871;SDS011;6504;53.766;9.626;2023-08-07T13:30:55;13.67;;;3.90;;
12871;SDS011;6504;53.766;9.626;2023-08-07T13:33:24;12.17;;;4.23;;
12871;SDS011;6504;53.766;9.626;2023-08-07T13:35:52;9.73;;;4.47;;
12871;SDS011;6504;53.766;9.626;2023-08-07T13:38:20;12.57;;;4.20;;
12871;SDS011;6504;53.766;9.626;2023-08-07T13:40:48;12.03;;;4.60;;
12871;SDS011;6504;53.766;9.626;2023-08-07T13:43:17;12.93;;;4.70;;
12871;SDS011;6504;53.766;9.626;2023-08-07T13:45:47;12.53;;;4.30;;
12871;SDS011;6504;53.766;9.626;2023-08-07T13:48:17;13.70;;;4.17;;
12871;SDS011;6504;53.766;9.626;2023-08-07T13:50:45;11.50;;;3.80;;
12871;SDS011;6504;53.766;9.626;2023-08-07T13:53:13;16.40;;;3.80;;
12871;SDS011;6504;53.766;9.626;2023-08-07T13:55:42;9.07;;;3.60;;
12871;SDS011;6504;53.766;9.626;2023-08-07T13:58:10;12.57;;;4.03;;
12871;SDS011;6504;53.766;9.626;2023-08-07T14:00:41;9.73;;;3.73;;
12871;SDS011;6504;53.766;9.626;2023-08-07T14:03:12;9.57;;;3.33;;
12871;SDS011;6504;53.766;9.626;2023-08-07T14:05:44;17.67;;;3.93;;
12871;SDS011;6504;53.766;9.626;2023-08-07T14:08:12;10.40;;;3.63;;
12871;SDS011;6504;53.766;9.626;2023-08-07T14:10:42;8.63;;;3.17;;
12871;SDS011;6504;53.766;9.626;2023-08-07T14:13:10;12.57;;;3.87;;
12871;SDS011;6504;53.766;9.626;2023-08-07T14:15:38;12.63;;;3.50;;
12871;SDS011;6504;53.766;9.626;2023-08-07T14:18:08;8.33;;;3.03;;
12871;SDS011;6504;53.766;9.626;2023-08-07T14:20:38;12.70;;;3.73;;
12871;SDS011;6504;53.766;9.626;2023-08-07T14:23:25;9.87;;;3.37;;
12871;SDS011;6504;53.766;9.626;2023-08-07T14:25:58;9.37;;;3.67;;
12871;SDS011;6504;53.766;9.626;2023-08-07T14:28:26;11.77;;;3.80;;
12871;SDS011;6504;53.766;9.626;2023-08-07T14:30:56;12.30;;;3.47;;
12871;SDS011;6504;53.766;9.626;2023-08-07T14:33:25;10.40;;;3.80;;
12871;SDS011;6504;53.766;9.626;2023-08-07T14:35:55;9.33;;;3.67;;
12871;SDS011;6504;53.766;9.626;2023-08-07T14:38:24;6.10;;;3.33;;
12871;SDS011;6504;53.766;9.626;2023-08-07T14:40:52;6.27;;;3.47;;
12871;SDS011;6504;53.766;9.626;2023-08-07T14:43:20;7.57;;;3.17;;
12871;SDS011;6504;53.766;9.626;2023-08-07T14:45:48;6.03;;;3.30;;
12871;SDS011;6504;53.766;9.626;2023-08-07T14:48:17;9.27;;;3.60;;
12871;SDS011;6504;53.766;9.626;2023-08-07T14:50:45;9.80;;;4.07;;
12871;SDS011;6504;53.766;9.626;2023-08-07T14:53:15;7.87;;;3.47;;
12871;SDS011;6504;53.766;9.626;2023-08-07T14:55:43;12.50;;;4.27;;
12871;SDS011;6504;53.766;9.626;2023-08-07T14:58:12;8.87;;;3.93;;
12871;SDS011;6504;53.766;9.626;2023-08-07T15:00:40;9.67;;;4.37;;
12871;SDS011;6504;53.766;9.626;2023-08-07T15:03:08;8.67;;;4.30;;
12871;SDS011;6504;53.766;9.626;2023-08-07T15:05:37;9.37;;;4.13;;
12871;SDS011;6504;53.766;9.626;2023-08-07T15:08:05;9.13;;;3.23;;